Time;durP1;ratioP1;P1;durP2;ratioP2;P2;SDS_P1;SDS_P2;PMS_P1;PMS_P2;Temp;Humidity;BMP_temperature;BMP_pressure;BME280_temperature;BME280_humidity;BME280_pressure;Samples;Min_cycle;Max_cycle;Signal;HPM_P1;HPM_P2
2022/06/08 00:00:12;;;;;;;5.50;2.92;;;11.30;99.90;;;;;;4951835;28;20043;-82
2022/06/08 00:02:39;;;;;;;9.43;3.60;;;11.00;99.90;;;;;;4968486;28;20050;-81
2022/06/08 00:05:06;;;;;;;5.93;2.80;;;11.00;99.90;;;;;;4954892;28;20486;-82
2022/06/08 00:07:32;;;;;;;4.43;3.00;;;10.90;99.90;;;;;;4980133;28;20066;-82
2022/06/08 00:09:59;;;;;;;5.75;3.13;;;12.00;99.90;;;;;;4968383;28;20918;-81
2022/06/08 00:12:25;;;;;;;5.07;3.10;;;10.90;99.90;;;;;;4967269;28;20041;-82
2022/06/08 00:14:51;;;;;;;4.60;2.55;;;10.90;99.90;;;;;;4963721;28;20043;-81
2022/06/08 00:17:18;;;;;;;5.43;2.60;;;10.90;99.90;;;;;;4966583;28;20411;-82
2022/06/08 00:19:44;;;;;;;5.13;3.15;;;10.80;99.90;;;;;;4963059;28;20039;-81
2022/06/08 00:22:10;;;;;;;8.13;3.75;;;10.80;99.90;;;;;;4964908;28;20041;-81
2022/06/08 00:24:35;;;;;;;7.97;3.03;;;11.70;99.90;;;;;;4967826;28;20390;-81
2022/06/08 00:27:01;;;;;;;7.15;3.47;;;10.80;99.90;;;;;;4967339;28;20402;-82
2022/06/08 00:29:27;;;;;;;7.28;3.13;;;10.70;99.90;;;;;;4938765;28;20578;-81
2022/06/08 00:31:53;;;;;;;5.63;3.15;;;12.00;99.90;;;;;;4963895;28;20053;-81
2022/06/08 00:34:19;;;;;;;4.47;3.33;;;10.70;99.90;;;;;;4965759;28;20053;-81
2022/06/08 00:36:44;;;;;;;5.97;2.90;;;10.70;99.90;;;;;;4963295;28;20471;-81
2022/06/08 00:39:10;;;;;;;4.88;2.67;;;11.80;99.90;;;;;;4949448;28;20035;-81
2022/06/08 00:41:52;;;;;;;3.63;2.63;;;10.60;99.90;;;;;;4963184;28;20043;-81
2022/06/08 00:44:26;;;;;;;4.82;2.25;;;10.80;99.90;;;;;;4963684;28;20039;-81
2022/06/08 00:46:53;;;;;;;5.03;3.15;;;11.80;99.90;;;;;;4986494;28;20050;-81
2022/06/08 00:49:32;;;;;;;10.80;4.00;;;10.70;99.90;;;;;;4965656;28;20039;-81
2022/06/08 00:52:00;;;;;;;8.52;3.22;;;10.60;99.90;;;;;;4953109;28;20050;-81
2022/06/08 00:54:31;;;;;;;4.45;2.85;;;10.60;99.90;;;;;;4966500;28;20383;-81
2022/06/08 00:57:07;;;;;;;3.83;2.92;;;10.70;99.90;;;;;;4967804;28;20057;-81
2022/06/08 00:59:35;;;;;;;6.85;3.15;;;10.60;99.90;;;;;;4967177;28;20391;-81
2022/06/08 01:02:02;;;;;;;5.22;3.50;;;11.20;99.90;;;;;;4951558;28;20042;-81
2022/06/08 01:04:29;;;;;;;4.40;3.25;;;11.30;99.90;;;;;;4970917;28;20061;-81
2022/06/08 01:06:58;;;;;;;5.07;3.08;;;10.60;99.90;;;;;;4955960;28;20062;-81
2022/06/08 01:09:34;;;;;;;6.35;2.95;;;10.60;99.90;;;;;;4970935;28;20050;-81
2022/06/08 01:12:07;;;;;;;5.40;3.25;;;10.60;99.90;;;;;;4966230;28;20929;-81
2022/06/08 01:14:35;;;;;;;6.40;3.40;;;10.60;99.90;;;;;;4967369;28;20051;-80
2022/06/08 01:17:10;;;;;;;4.45;2.97;;;12.10;99.90;;;;;;4949152;28;20141;-81
2022/06/08 01:19:38;;;;;;;8.23;3.45;;;11.40;99.90;;;;;;4984104;28;20050;-80
2022/06/08 01:22:06;;;;;;;3.80;2.97;;;10.50;99.90;;;;;;4968656;28;20038;-79
2022/06/08 01:24:33;;;;;;;6.72;3.42;;;10.50;99.90;;;;;;4951264;28;20047;-79
2022/06/08 01:27:16;;;;;;;5.57;3.22;;;11.50;99.90;;;;;;4964638;28;20039;-80
2022/06/08 01:30:13;;;;;;;6.10;3.33;;;10.50;99.90;;;;;;4962866;28;20098;-79
2022/06/08 01:32:41;;;;;;;3.40;2.88;;;10.50;99.90;;;;;;4975503;28;20050;-81
2022/06/08 01:35:50;;;;;;;5.47;3.60;;;10.60;99.90;;;;;;4950763;28;20100;-80
2022/06/08 01:38:30;;;;;;;13.75;3.55;;;10.60;99.90;;;;;;4935741;28;20851;-81
2022/06/08 01:41:01;;;;;;;2.88;2.63;;;10.60;99.90;;;;;;4965438;28;20057;-80
2022/06/08 01:43:36;;;;;;;6.20;3.08;;;12.10;99.90;;;;;;4946596;28;20461;-81
2022/06/08 01:46:17;;;;;;;5.22;3.10;;;10.60;99.90;;;;;;4964887;28;20649;-81
2022/06/08 01:49:07;;;;;;;7.22;3.22;;;11.60;99.90;;;;;;4965091;28;20051;-80
2022/06/08 01:52:10;;;;;;;5.20;3.08;;;10.60;99.90;;;;;;4986159;28;20134;-81
2022/06/08 01:54:42;;;;;;;5.43;3.42;;;10.60;99.90;;;;;;4964841;28;20043;-81
2022/06/08 01:57:08;;;;;;;8.82;3.58;;;10.60;99.90;;;;;;4968876;28;20550;-80
2022/06/08 02:00:00;;;;;;;6.30;3.72;;;10.50;99.90;;;;;;4970186;28;20054;-80
2022/06/08 02:03:00;;;;;;;5.35;3.83;;;10.50;99.90;;;;;;4967124;28;20045;-80
2022/06/08 02:05:49;;;;;;;4.60;2.58;;;10.40;99.90;;;;;;4967741;28;20645;-81
2022/06/08 02:08:42;;;;;;;5.15;3.60;;;10.50;99.90;;;;;;4950922;28;20050;-81
2022/06/08 02:11:22;;;;;;;5.05;3.40;;;10.50;99.90;;;;;;4971085;28;20042;-80
2022/06/08 02:14:02;;;;;;;5.63;3.33;;;10.40;99.90;;;;;;4947431;28;20047;-81
2022/06/08 02:17:04;;;;;;;4.97;3.42;;;10.40;99.90;;;;;;4969073;28;20454;-81
2022/06/08 02:19:49;;;;;;;5.93;3.53;;;10.50;99.90;;;;;;4930465;29;20109;-81
2022/06/08 02:22:23;;;;;;;5.78;3.10;;;10.50;99.90;;;;;;4947242;28;20062;-80
2022/06/08 02:25:29;;;;;;;5.53;3.83;;;10.50;99.90;;;;;;4965650;28;20047;-81
2022/06/08 02:28:06;;;;;;;9.18;3.72;;;10.60;99.90;;;;;;4958771;28;20433;-79
2022/06/08 02:30:39;;;;;;;6.93;3.65;;;10.60;99.90;;;;;;4963595;28;20062;-80
2022/06/08 02:36:00;;;;;;;8.18;4.47;;;11.60;99.90;;;;;;4962515;28;20059;-80
2022/06/08 02:38:33;;;;;;;6.75;4.35;;;10.60;99.90;;;;;;4963908;28;20104;-80
2022/06/08 02:41:03;;;;;;;7.23;4.03;;;10.60;99.90;;;;;;4952251;28;20092;-80
2022/06/08 02:43:46;;;;;;;8.02;4.78;;;10.60;99.90;;;;;;4961703;28;20329;-80
2022/06/08 02:46:41;;;;;;;6.93;5.05;;;10.60;99.90;;;;;;4981800;28;20047;-80
2022/06/08 02:49:09;;;;;;;5.53;4.90;;;11.80;99.90;;;;;;4949862;28;20521;-80
2022/06/08 02:51:36;;;;;;;6.75;4.95;;;11.60;99.90;;;;;;4952415;28;20515;-79
2022/06/08 02:54:17;;;;;;;10.10;5.50;;;10.60;99.90;;;;;;4965122;28;20135;-80
2022/06/08 02:57:11;;;;;;;10.82;5.82;;;10.60;99.90;;;;;;4984051;28;20123;-79
2022/06/08 02:59:59;;;;;;;10.38;6.70;;;10.70;99.90;;;;;;4963675;28;20043;-79
2022/06/08 03:02:33;;;;;;;8.30;6.18;;;10.60;99.90;;;;;;4966291;28;20156;-81
2022/06/08 03:05:03;;;;;;;;;;;10.70;99.90;;;;;;4964018;28;20538;-80
2022/06/08 03:07:34;;;;;;;12.32;7.03;;;11.20;99.90;;;;;;4964677;28;20341;-80
2022/06/08 03:10:06;;;;;;;8.93;6.85;;;10.60;99.90;;;;;;4967791;28;20303;-80
2022/06/08 03:12:40;;;;;;;9.15;7.13;;;10.60;99.90;;;;;;4967363;28;20082;-80
2022/06/08 03:15:07;;;;;;;;;;;10.60;99.90;;;;;;4966226;28;20050;-79
2022/06/08 03:17:34;;;;;;;7.60;6.80;;;10.60;99.90;;;;;;4951877;28;19926;-80
2022/06/08 03:20:04;;;;;;;8.57;7.70;;;9.20;99.90;;;;;;4967853;28;20560;-80
2022/06/08 03:22:30;;;;;;;8.48;7.68;;;10.60;99.90;;;;;;4968820;28;20047;-81
2022/06/08 03:24:57;;;;;;;11.23;8.40;;;10.60;99.90;;;;;;4964092;28;20130;-81
2022/06/08 03:27:23;;;;;;;10.82;8.70;;;10.70;99.90;;;;;;4968624;28;20149;-81
2022/06/08 03:29:48;;;;;;;12.70;8.15;;;11.60;99.90;;;;;;4963384;28;20043;-81
2022/06/08 03:32:14;;;;;;;12.27;9.30;;;10.60;99.90;;;;;;4949277;28;20402;-80
2022/06/08 03:34:40;;;;;;;13.13;9.32;;;10.60;99.90;;;;;;4952323;28;20078;-81
2022/06/08 03:37:07;;;;;;;16.60;9.80;;;10.70;99.90;;;;;;4969136;28;20339;-81
2022/06/08 03:39:33;;;;;;;12.23;9.82;;;10.70;99.90;;;;;;4969786;28;20117;-80
2022/06/08 03:41:59;;;;;;;13.07;10.00;;;10.70;99.90;;;;;;4970684;28;20062;-80
2022/06/08 03:44:25;;;;;;;13.52;9.25;;;10.70;99.90;;;;;;4967600;28;20392;-80
2022/06/08 03:46:54;;;;;;;11.65;10.23;;;11.00;99.90;;;;;;4968500;28;20047;-80
2022/06/08 03:49:22;;;;;;;15.38;10.70;;;10.70;99.90;;;;;;4956761;28;20538;-80
2022/06/08 03:51:50;;;;;;;10.90;9.07;;;10.70;99.90;;;;;;4984779;28;20065;-80
2022/06/08 03:54:19;;;;;;;14.73;10.18;;;12.10;99.90;;;;;;4966323;28;20031;-81
2022/06/08 03:56:49;;;;;;;11.93;10.07;;;10.70;99.90;;;;;;4960035;28;20543;-80
2022/06/08 03:59:15;;;;;;;11.75;9.70;;;10.70;99.90;;;;;;4968862;28;20038;-80
2022/06/08 04:01:42;;;;;;;10.48;9.38;;;12.00;99.90;;;;;;4982532;28;20702;-80
2022/06/08 04:04:08;;;;;;;12.43;9.70;;;10.70;99.90;;;;;;4964004;28;20530;-81
2022/06/08 04:06:34;;;;;;;12.48;9.60;;;10.70;99.90;;;;;;4985520;28;20093;-81
2022/06/08 04:08:59;;;;;;;10.63;9.35;;;10.70;99.90;;;;;;4962722;28;20415;-80
2022/06/08 04:11:28;;;;;;;11.82;9.43;;;10.70;99.90;;;;;;4965114;28;20050;-80
2022/06/08 04:13:54;;;;;;;14.95;10.10;;;10.70;99.90;;;;;;4947204;28;20125;-80
2022/06/08 04:16:19;;;;;;;12.70;9.57;;;10.70;99.90;;;;;;4967174;28;20133;-80
2022/06/08 04:18:45;;;;;;;13.30;10.05;;;11.20;99.90;;;;;;4964935;28;20039;-80
2022/06/08 04:21:12;;;;;;;13.73;10.88;;;10.80;99.90;;;;;;4969013;28;20267;-81
2022/06/08 04:23:42;;;;;;;17.65;12.02;;;10.90;99.90;;;;;;4972188;28;20042;-80
2022/06/08 04:26:11;;;;;;;16.70;10.98;;;10.90;99.90;;;;;;4970353;28;20049;-81
2022/06/08 04:28:37;;;;;;;17.42;11.98;;;12.20;99.90;;;;;;4972667;28;20051;-81
2022/06/08 04:31:05;;;;;;;15.40;13.73;;;11.10;99.90;;;;;;4968698;28;20050;-81
2022/06/08 04:33:34;;;;;;;17.35;12.98;;;11.10;99.90;;;;;;4970138;28;20487;-81
2022/06/08 04:36:00;;;;;;;15.45;13.80;;;11.20;99.90;;;;;;4971604;28;20042;-81
2022/06/08 04:38:25;;;;;;;19.63;13.77;;;12.30;99.90;;;;;;4971118;28;20397;-79
2022/06/08 04:40:51;;;;;;;20.30;14.57;;;12.20;99.90;;;;;;4956327;28;20039;-78
2022/06/08 04:43:18;;;;;;;21.33;15.05;;;11.40;99.90;;;;;;4971867;28;20077;-80
2022/06/08 04:45:44;;;;;;;18.67;14.18;;;11.40;99.90;;;;;;4971652;28;20068;-81
2022/06/08 04:48:10;;;;;;;17.55;14.48;;;11.50;99.90;;;;;;4970780;28;20118;-81
2022/06/08 04:50:36;;;;;;;19.23;14.95;;;11.50;99.90;;;;;;4972475;28;20089;-81
2022/06/08 04:53:01;;;;;;;19.67;14.88;;;12.80;99.90;;;;;;4969643;28;20388;-81
2022/06/08 04:55:27;;;;;;;21.02;15.20;;;11.60;99.90;;;;;;4970817;28;20080;-82
2022/06/08 04:57:53;;;;;;;19.35;14.85;;;11.60;99.90;;;;;;4969573;28;20475;-82
2022/06/08 05:00:24;;;;;;;21.50;15.52;;;11.60;99.90;;;;;;4973942;28;20082;-82
2022/06/08 05:02:52;;;;;;;18.15;15.30;;;11.70;99.90;;;;;;4958662;28;20495;-82
2022/06/08 05:05:22;;;;;;;20.10;15.98;;;11.80;99.90;;;;;;4970847;28;20376;-81
2022/06/08 05:07:49;;;;;;;19.40;15.63;;;11.80;99.90;;;;;;4970724;28;20506;-81
2022/06/08 05:10:19;;;;;;;22.95;15.55;;;11.80;99.90;;;;;;4966291;28;20506;-81
2022/06/08 05:12:45;;;;;;;24.33;16.25;;;11.80;99.90;;;;;;4969354;28;20091;-81
2022/06/08 05:15:15;;;;;;;18.40;15.23;;;11.90;99.90;;;;;;4970497;28;20097;-81
2022/06/08 05:17:41;;;;;;;24.73;16.05;;;11.90;99.90;;;;;;4968402;28;20039;-80
2022/06/08 05:20:08;;;;;;;21.05;17.10;;;11.90;99.90;;;;;;4967141;28;20073;-81
2022/06/08 05:22:37;;;;;;;26.27;18.20;;;12.00;99.90;;;;;;4971413;28;20034;-81
2022/06/08 05:25:08;;;;;;;20.48;16.35;;;12.00;99.90;;;;;;4947679;28;20130;-81
2022/06/08 05:27:34;;;;;;;28.42;18.02;;;12.10;99.90;;;;;;4970476;28;20035;-81
2022/06/08 05:30:00;;;;;;;23.80;18.65;;;12.10;99.90;;;;;;4962420;28;20063;-82
2022/06/08 05:32:28;;;;;;;26.88;18.33;;;12.20;99.90;;;;;;4969256;28;20047;-80
2022/06/08 05:34:54;;;;;;;21.98;17.95;;;12.10;99.90;;;;;;4968816;28;20050;-80
2022/06/08 05:37:19;;;;;;;22.40;17.65;;;12.40;99.90;;;;;;4968710;28;20372;-81
2022/06/08 05:39:45;;;;;;;24.40;19.95;;;12.30;99.90;;;;;;4969248;28;20158;-81
2022/06/08 05:42:11;;;;;;;26.52;18.77;;;12.70;99.90;;;;;;4956096;28;20082;-80
2022/06/08 05:44:39;;;;;;;22.65;16.60;;;12.40;99.90;;;;;;4983786;28;20047;-80
2022/06/08 05:47:05;;;;;;;22.85;18.58;;;13.20;99.90;;;;;;4964833;28;20423;-81
2022/06/08 05:49:33;;;;;;;24.65;19.58;;;12.50;99.90;;;;;;4972154;28;20035;-80
2022/06/08 05:51:59;;;;;;;23.40;18.90;;;12.50;99.90;;;;;;4970483;28;20047;-81
2022/06/08 05:54:25;;;;;;;28.42;20.30;;;12.60;99.90;;;;;;4967975;28;20451;-80
2022/06/08 05:56:51;;;;;;;29.60;21.75;;;12.70;99.90;;;;;;4987449;28;20163;-81
2022/06/08 05:59:16;;;;;;;23.52;18.15;;;12.70;99.90;;;;;;4968804;28;20046;-80
2022/06/08 06:01:42;;;;;;;24.80;18.85;;;13.50;99.90;;;;;;4970664;28;20061;-80
2022/06/08 06:04:12;;;;;;;25.25;18.23;;;13.30;99.90;;;;;;4980267;28;20241;-79
2022/06/08 06:06:45;;;;;;;24.20;16.83;;;13.00;99.90;;;;;;4970739;28;20094;-80
2022/06/08 06:09:13;;;;;;;20.80;16.80;;;13.00;99.90;;;;;;4951206;28;20384;-80
2022/06/08 06:11:42;;;;;;;23.33;18.23;;;13.10;99.90;;;;;;4964590;28;20545;-79
2022/06/08 06:14:09;;;;;;;21.67;16.95;;;13.20;99.90;;;;;;4966923;28;20126;-79
2022/06/08 06:16:35;;;;;;;29.17;18.48;;;13.20;99.90;;;;;;4955068;28;20489;-80
2022/06/08 06:19:01;;;;;;;21.42;16.90;;;13.30;99.90;;;;;;4967493;28;20144;-81
2022/06/08 06:21:27;;;;;;;23.55;18.13;;;13.70;99.90;;;;;;4968495;28;20494;-81
2022/06/08 06:23:54;;;;;;;24.17;17.50;;;13.40;99.90;;;;;;4949077;28;20057;-81
2022/06/08 06:26:20;;;;;;;20.50;16.65;;;13.50;99.90;;;;;;4969455;28;20066;-79
2022/06/08 06:28:46;;;;;;;20.25;17.70;;;13.30;99.90;;;;;;4951065;28;20063;-79
2022/06/08 06:31:17;;;;;;;21.25;17.58;;;13.70;99.90;;;;;;4983021;28;20087;-79
2022/06/08 06:33:43;;;;;;;24.15;17.73;;;13.90;99.90;;;;;;4935399;28;20471;-79
2022/06/08 06:36:12;;;;;;;20.73;16.00;;;13.80;99.90;;;;;;4967118;28;20049;-79
2022/06/08 06:38:37;;;;;;;22.00;15.38;;;12.90;99.90;;;;;;4971699;28;20031;-80
2022/06/08 06:41:03;;;;;;;20.48;15.98;;;14.00;99.90;;;;;;4968672;28;20109;-81
2022/06/08 06:43:29;;;;;;;17.85;14.93;;;14.00;99.90;;;;;;4976482;28;20050;-80
2022/06/08 06:45:54;;;;;;;18.67;15.55;;;14.10;99.90;;;;;;4966237;28;20054;-80
2022/06/08 06:48:20;;;;;;;19.50;16.27;;;14.10;99.90;;;;;;4971992;28;20071;-80
2022/06/08 06:50:45;;;;;;;22.58;15.52;;;14.20;99.90;;;;;;4970712;28;20119;-80
2022/06/08 06:53:13;;;;;;;19.08;14.35;;;14.20;99.90;;;;;;4969397;28;20043;-80
2022/06/08 06:55:39;;;;;;;20.23;14.50;;;14.30;99.90;;;;;;4979443;28;20513;-80
2022/06/08 06:58:06;;;;;;;17.42;15.38;;;14.30;99.90;;;;;;4969406;28;20042;-80
2022/06/08 07:00:32;;;;;;;18.05;14.35;;;15.60;99.90;;;;;;4971507;28;20514;-79
2022/06/08 07:02:57;;;;;;;16.27;13.27;;;14.80;99.90;;;;;;4985334;28;20121;-81
2022/06/08 07:05:28;;;;;;;20.73;14.38;;;14.40;99.90;;;;;;4969275;28;20165;-79
2022/06/08 07:07:54;;;;;;;21.58;14.43;;;14.50;99.90;;;;;;4968442;28;20082;-80
2022/06/08 07:10:20;;;;;;;15.60;13.13;;;14.60;99.90;;;;;;4965647;28;20553;-81
2022/06/08 07:12:47;;;;;;;15.13;11.98;;;14.60;99.90;;;;;;4965196;28;20082;-80
2022/06/08 07:15:16;;;;;;;14.43;11.60;;;15.80;99.90;;;;;;4969787;28;20141;-80
2022/06/08 07:17:41;;;;;;;16.83;11.35;;;14.90;99.90;;;;;;4964429;28;20042;-80
2022/06/08 07:20:08;;;;;;;14.15;11.70;;;15.10;99.90;;;;;;4961564;28;20055;-80
2022/06/08 07:22:34;;;;;;;12.55;10.65;;;15.00;99.90;;;;;;4969323;28;20039;-81
2022/06/08 07:25:00;;;;;;;10.38;9.18;;;15.10;99.90;;;;;;4978726;28;20054;-80
2022/06/08 07:27:27;;;;;;;11.68;9.50;;;15.80;99.90;;;;;;4936053;28;20050;-80
2022/06/08 07:29:53;;;;;;;10.05;9.15;;;15.70;99.90;;;;;;4957975;28;20059;-81
2022/06/08 07:32:19;;;;;;;10.52;9.38;;;16.60;99.90;;;;;;4964406;28;20043;-82
2022/06/08 07:34:45;;;;;;;11.85;8.73;;;15.40;99.90;;;;;;4968088;28;20049;-81
2022/06/08 07:37:10;;;;;;;9.65;7.97;;;15.50;99.90;;;;;;4947313;28;20042;-82
2022/06/08 07:39:36;;;;;;;14.77;8.88;;;15.40;99.90;;;;;;4968281;28;20508;-82
2022/06/08 07:42:03;;;;;;;8.63;7.70;;;15.50;99.90;;;;;;4984345;28;20047;-81
2022/06/08 07:44:29;;;;;;;13.00;8.10;;;15.50;99.90;;;;;;4986057;28;20071;-82
2022/06/08 07:46:55;;;;;;;9.93;7.32;;;16.00;99.90;;;;;;4950967;28;20486;-81
2022/06/08 07:49:37;;;;;;;7.95;7.15;;;15.60;99.90;;;;;;4968192;28;20098;-82
2022/06/08 07:52:08;;;;;;;9.73;6.65;;;15.70;99.90;;;;;;4965589;28;20043;-81
2022/06/08 07:54:34;;;;;;;7.43;6.60;;;15.70;99.90;;;;;;4991152;28;20490;-80
2022/06/08 07:57:15;;;;;;;6.85;6.10;;;15.70;99.90;;;;;;4957111;28;20081;-80
2022/06/08 07:59:44;;;;;;;8.83;6.27;;;15.80;99.90;;;;;;4978764;28;20050;-82
2022/06/08 08:02:11;;;;;;;7.10;5.75;;;16.10;99.90;;;;;;4969563;28;20348;-82
2022/06/08 08:04:40;;;;;;;8.60;5.90;;;15.90;99.90;;;;;;4967994;28;20078;-83
2022/06/08 08:07:06;;;;;;;10.60;6.95;;;15.90;99.90;;;;;;4963705;28;20130;-82
2022/06/08 08:09:34;;;;;;;7.63;6.78;;;16.00;99.90;;;;;;4973787;28;20125;-81
2022/06/08 08:12:00;;;;;;;7.78;6.97;;;16.10;99.90;;;;;;4970278;28;20057;-81
2022/06/08 08:14:26;;;;;;;7.95;7.00;;;16.10;99.90;;;;;;4989662;28;20031;-82
2022/06/08 08:16:52;;;;;;;9.52;6.90;;;16.10;99.90;;;;;;4964808;28;20043;-79
2022/06/08 08:19:20;;;;;;;7.55;6.68;;;16.20;99.90;;;;;;4987917;28;20053;-78
2022/06/08 08:21:47;;;;;;;9.43;5.82;;;16.20;99.90;;;;;;4955980;28;20039;-80
2022/06/08 08:24:13;;;;;;;6.68;5.38;;;16.30;99.90;;;;;;4972957;28;20093;-83
2022/06/08 08:26:39;;;;;;;5.47;4.90;;;16.30;99.90;;;;;;4969328;28;20127;-83
2022/06/08 08:29:05;;;;;;;5.25;4.85;;;16.40;99.90;;;;;;4954537;28;20145;-83
2022/06/08 08:31:32;;;;;;;3.80;3.20;;;16.40;99.90;;;;;;4976852;28;20121;-82
2022/06/08 08:33:58;;;;;;;3.90;2.90;;;16.70;99.90;;;;;;4953819;28;20038;-86
2022/06/08 08:36:24;;;;;;;3.95;2.60;;;16.60;99.90;;;;;;4951547;28;20130;-81
2022/06/08 08:38:50;;;;;;;3.05;2.45;;;16.60;99.90;;;;;;4983992;28;20093;-85
2022/06/08 08:44:06;;;;;;;4.85;3.28;;;16.80;99.90;;;;;;4966644;28;20090;-84
2022/06/08 08:46:55;;;;;;;2.22;2.00;;;18.00;99.90;;;;;;4967741;28;20474;-84
2022/06/08 08:49:23;;;;;;;5.57;2.13;;;17.10;99.90;;;;;;4966191;28;20097;-85
2022/06/08 08:52:05;;;;;;;3.42;2.17;;;17.20;99.90;;;;;;4973593;28;20062;-86
2022/06/08 08:54:38;;;;;;;2.80;2.28;;;17.30;99.90;;;;;;4983485;28;20464;-84
2022/06/08 08:57:20;;;;;;;1.67;1.58;;;17.40;99.90;;;;;;4957710;28;20097;-82
2022/06/08 08:59:51;;;;;;;3.90;2.13;;;17.40;99.90;;;;;;4985455;28;20098;-84
2022/06/08 09:05:17;;;;;;;4.65;1.90;;;17.60;99.90;;;;;;4970012;28;20487;-83
2022/06/08 09:07:43;;;;;;;3.30;2.25;;;17.70;99.90;;;;;;4948375;28;20050;-84
2022/06/08 09:10:22;;;;;;;3.70;2.20;;;17.70;99.90;;;;;;4971065;28;20043;-82
2022/06/08 09:12:48;;;;;;;2.13;1.70;;;17.70;99.90;;;;;;4966520;28;20050;-82
2022/06/08 09:15:16;;;;;;;2.38;1.70;;;17.80;99.90;;;;;;4988807;28;20174;-82
2022/06/08 09:17:59;;;;;;;2.50;1.77;;;17.80;99.90;;;;;;4945641;28;20082;-82
2022/06/08 09:20:31;;;;;;;2.20;1.75;;;17.80;99.90;;;;;;4988397;28;20055;-83
2022/06/08 09:23:01;;;;;;;1.23;1.13;;;17.90;99.90;;;;;;4967801;28;20051;-84
2022/06/08 09:25:35;;;;;;;2.05;1.42;;;18.00;99.90;;;;;;4969556;28;20051;-83
2022/06/08 09:28:02;;;;;;;4.38;0.88;;;18.00;99.90;;;;;;4967908;28;20051;-82
2022/06/08 09:30:45;;;;;;;1.42;0.70;;;18.40;99.90;;;;;;4968386;28;20039;-81
2022/06/08 09:33:30;;;;;;;3.78;2.17;;;18.20;99.90;;;;;;4988233;28;20107;-82
2022/06/08 09:36:01;;;;;;;1.67;1.15;;;18.20;99.90;;;;;;4984543;28;20081;-83
2022/06/08 09:38:32;;;;;;;2.55;1.30;;;18.20;99.90;;;;;;4970584;28;20497;-82
2022/06/08 09:41:13;;;;;;;1.92;1.23;;;18.20;99.90;;;;;;4947311;28;20125;-83
2022/06/08 09:44:07;;;;;;;1.63;0.60;;;18.20;99.90;;;;;;4966898;28;20148;-82
2022/06/08 09:53:29;;;;;;;3.08;0.98;;;18.40;99.90;;;;;;4966378;28;20050;-84
2022/06/08 09:56:09;;;;;;;2.38;1.10;;;18.40;99.90;;;;;;4968192;28;20675;-79
2022/06/08 09:59:21;;;;;;;1.20;1.10;;;18.30;99.90;;;;;;4967608;28;20129;-79
2022/06/08 10:02:01;;;;;;;4.47;1.40;;;18.20;99.90;;;;;;4963489;28;20062;-77
2022/06/08 10:04:35;;;;;;;1.70;1.60;;;18.40;99.90;;;;;;4958332;28;20077;-77
2022/06/08 10:07:26;;;;;;;3.22;1.15;;;18.10;99.90;;;;;;4969538;28;20587;-80
2022/06/08 10:10:14;;;;;;;2.60;1.73;;;18.10;99.90;;;;;;4979058;28;20050;-79
2022/06/08 10:12:58;;;;;;;4.15;2.40;;;18.20;99.90;;;;;;4969524;28;20046;-81
2022/06/08 10:15:48;;;;;;;2.55;1.65;;;18.20;99.90;;;;;;4963079;28;20043;-76
2022/06/08 10:18:35;;;;;;;2.47;1.58;;;18.30;99.90;;;;;;4958695;28;20487;-81
2022/06/08 10:21:28;;;;;;;3.90;2.25;;;18.40;99.90;;;;;;4963167;28;20047;-78
2022/06/08 10:24:15;;;;;;;2.15;1.95;;;18.50;99.90;;;;;;4964645;28;20042;-84
2022/06/08 10:27:02;;;;;;;2.08;1.98;;;18.60;99.90;;;;;;4965805;28;20039;-82
2022/06/08 10:29:40;;;;;;;4.78;2.10;;;18.70;99.90;;;;;;4966754;28;20051;-79
2022/06/08 10:32:20;;;;;;;7.63;1.92;;;18.70;99.90;;;;;;4961312;28;20121;-83
2022/06/08 10:34:53;;;;;;;4.45;1.67;;;18.70;99.90;;;;;;4964786;28;20134;-84
2022/06/08 10:37:38;;;;;;;3.37;1.73;;;18.80;99.90;;;;;;4966469;28;20851;-83
2022/06/08 10:40:17;;;;;;;2.50;1.80;;;18.90;99.90;;;;;;4976509;28;20047;-86
2022/06/08 10:42:46;;;;;;;4.38;1.60;;;19.00;99.90;;;;;;4964122;28;20055;-84
2022/06/08 10:45:29;;;;;;;3.42;1.58;;;19.30;99.90;;;;;;4958570;28;20034;-84
2022/06/08 10:48:13;;;;;;;6.22;2.55;;;19.00;99.90;;;;;;4979507;28;20616;-84
2022/06/08 10:50:54;;;;;;;5.25;1.85;;;19.00;99.90;;;;;;4982796;28;20475;-85
2022/06/08 10:56:34;;;;;;;4.50;2.08;;;18.90;99.90;;;;;;4983743;28;20058;-84
2022/06/08 10:59:05;;;;;;;4.22;1.85;;;18.90;99.90;;;;;;4972066;28;20098;-82
2022/06/08 11:01:50;;;;;;;4.43;2.95;;;18.80;99.90;;;;;;4987830;28;20097;-84
2022/06/08 11:04:39;;;;;;;3.92;1.90;;;18.80;99.90;;;;;;4958446;28;20074;-85
2022/06/08 11:07:17;;;;;;;2.92;1.50;;;18.80;99.90;;;;;;4965263;28;20406;-85
2022/06/08 11:09:53;;;;;;;4.55;2.25;;;18.70;99.90;;;;;;4963874;28;20454;-84
2022/06/08 11:12:36;;;;;;;6.68;2.60;;;18.70;99.90;;;;;;4966226;28;20054;-83
2022/06/08 11:15:16;;;;;;;6.22;3.22;;;18.80;99.90;;;;;;4952454;28;20054;-82
2022/06/08 11:18:01;;;;;;;8.23;3.95;;;18.40;99.90;;;;;;4968876;28;20047;-80
2022/06/08 11:20:35;;;;;;;3.70;3.10;;;18.20;99.90;;;;;;4947304;28;20042;-79
2022/06/08 11:23:41;;;;;;;6.90;3.08;;;18.00;99.90;;;;;;4965629;28;20486;-79
2022/06/08 11:26:20;;;;;;;5.05;3.25;;;17.90;99.90;;;;;;4980361;28;20458;-79
2022/06/08 11:28:50;;;;;;;5.47;3.70;;;17.90;99.90;;;;;;4952440;28;20046;-80
2022/06/08 11:31:25;;;;;;;5.93;3.85;;;17.80;99.90;;;;;;4955221;28;20053;-80
2022/06/08 11:34:09;;;;;;;6.45;3.90;;;18.50;99.90;;;;;;4966004;28;20155;-80
2022/06/08 11:36:50;;;;;;;4.63;4.10;;;17.70;99.90;;;;;;4966877;28;20047;-79
2022/06/08 11:39:29;;;;;;;6.00;4.40;;;17.70;99.90;;;;;;4958399;28;21720;-86
2022/06/08 11:42:08;;;;;;;5.72;4.68;;;17.60;99.90;;;;;;4967243;28;20109;-85
2022/06/08 11:44:35;;;;;;;8.18;4.90;;;17.60;99.90;;;;;;4964966;28;20483;-84
2022/06/08 11:47:15;;;;;;;9.45;5.63;;;17.60;99.90;;;;;;4970540;28;20105;-85
2022/06/08 11:49:45;;;;;;;6.63;4.78;;;17.50;99.90;;;;;;4961880;28;20498;-81
2022/06/08 11:52:27;;;;;;;11.07;5.57;;;17.90;99.90;;;;;;4968699;28;20050;-85
2022/06/08 11:55:23;;;;;;;10.60;5.65;;;17.50;99.90;;;;;;4962855;28;20491;-83
2022/06/08 11:57:57;;;;;;;6.80;4.57;;;17.50;99.90;;;;;;4962106;28;20059;-86
2022/06/08 12:00:25;;;;;;;;;;;17.50;99.90;;;;;;4971092;28;20046;-87
2022/06/08 12:02:58;;;;;;;7.53;6.78;;;17.50;99.90;;;;;;4954152;28;19929;-86
2022/06/08 12:05:31;;;;;;;10.48;8.23;;;17.60;99.90;;;;;;4971382;28;20528;-86
2022/06/08 12:08:08;;;;;;;8.07;5.95;;;17.60;99.90;;;;;;4935221;28;20042;-86
2022/06/08 12:10:35;;;;;;;8.45;4.85;;;17.70;99.90;;;;;;4967622;28;20521;-82
2022/06/08 12:13:02;;;;;;;6.35;5.38;;;17.80;99.90;;;;;;4970390;28;20057;-85
2022/06/08 12:15:45;;;;;;;8.95;5.25;;;17.90;99.90;;;;;;4964259;28;20066;-86
2022/06/08 12:18:26;;;;;;;8.10;5.28;;;18.00;99.90;;;;;;4949354;28;20074;-85
2022/06/08 12:21:17;;;;;;;7.18;5.25;;;18.20;99.90;;;;;;4964793;28;20051;-85
2022/06/08 12:23:55;;;;;;;7.22;5.07;;;18.40;99.90;;;;;;4952254;28;20035;-87
2022/06/08 12:26:23;;;;;;;7.22;4.88;;;18.40;99.90;;;;;;4970093;28;20035;-87
2022/06/08 12:29:16;;;;;;;6.25;4.30;;;18.50;99.90;;;;;;4952370;28;20047;-86
2022/06/08 12:31:43;;;;;;;9.90;4.72;;;18.50;99.90;;;;;;4957419;28;20133;-86
2022/06/08 12:34:30;;;;;;;5.35;3.67;;;18.50;99.90;;;;;;4968649;28;20043;-85
2022/06/08 12:36:56;;;;;;;4.82;3.05;;;18.40;99.90;;;;;;4964968;28;20057;-86
2022/06/08 12:39:28;;;;;;;6.65;2.97;;;18.30;99.90;;;;;;4950423;28;20548;-85
2022/06/08 12:41:57;;;;;;;5.28;2.80;;;19.10;99.90;;;;;;4972706;28;20093;-85
2022/06/08 12:44:28;;;;;;;4.95;2.50;;;19.00;99.90;;;;;;4973899;28;20042;-85
2022/06/08 12:47:00;;;;;;;4.50;1.80;;;18.10;99.90;;;;;;4967630;28;20046;-83
2022/06/08 12:49:51;;;;;;;3.85;1.83;;;18.00;99.90;;;;;;4968697;28;20081;-86
2022/06/08 12:52:24;;;;;;;4.18;2.00;;;18.60;99.90;;;;;;4962018;28;20129;-86
2022/06/08 12:54:50;;;;;;;4.47;1.92;;;18.00;99.90;;;;;;4973222;28;20514;-86
2022/06/08 12:57:28;;;;;;;5.85;2.10;;;17.70;99.90;;;;;;4976728;28;20046;-91
2022/06/08 12:59:59;;;;;;;3.50;2.17;;;17.50;99.90;;;;;;4963741;28;20039;-83
2022/06/08 13:02:32;;;;;;;4.72;1.80;;;18.50;99.90;;;;;;4965489;28;20051;-88
2022/06/08 13:05:03;;;;;;;2.38;1.98;;;17.50;99.90;;;;;;4956493;28;20047;-79
2022/06/08 13:07:31;;;;;;;4.57;2.38;;;17.50;99.90;;;;;;4969361;28;20497;-79
2022/06/08 13:09:58;;;;;;;6.55;2.95;;;17.50;99.90;;;;;;4956586;28;20126;-81
2022/06/08 13:12:34;;;;;;;8.02;3.35;;;17.40;99.90;;;;;;4967153;28;20042;-81
2022/06/08 13:15:00;;;;;;;7.63;3.03;;;17.40;99.90;;;;;;4983745;28;20056;-80
2022/06/08 13:17:28;;;;;;;7.22;3.63;;;17.30;99.90;;;;;;4971227;28;20047;-81
2022/06/08 13:19:57;;;;;;;8.65;4.22;;;17.40;99.90;;;;;;4982976;28;20039;-81
2022/06/08 13:22:25;;;;;;;5.10;3.65;;;17.30;99.90;;;;;;4959737;28;20550;-82
2022/06/08 13:24:54;;;;;;;7.13;4.20;;;17.90;99.90;;;;;;4960269;28;20151;-81